createdAt,value
2023-05-07T00:02:05.584Z,6.70
2023-05-07T00:04:37.893Z,6.20
2023-05-07T00:07:05.046Z,6.30
2023-05-07T00:09:31.823Z,7.00
2023-05-07T00:11:58.723Z,6.50
2023-05-07T00:14:25.544Z,6.30
2023-05-07T00:16:52.386Z,5.90
2023-05-07T00:19:19.240Z,5.60
2023-05-07T00:21:46.302Z,5.90
2023-05-07T00:24:13.027Z,5.60
2023-05-07T00:26:39.810Z,6.00
2023-05-07T00:29:06.586Z,6.10
2023-05-07T00:31:33.328Z,5.50
2023-05-07T00:34:00.120Z,5.60
2023-05-07T00:36:27.365Z,5.50
2023-05-07T00:38:54.967Z,5.10
2023-05-07T00:41:21.780Z,4.80
2023-05-07T00:43:48.649Z,5.30
2023-05-07T00:46:15.530Z,5.30
2023-05-07T00:48:42.560Z,5.80
2023-05-07T00:51:10.126Z,5.30
2023-05-07T00:53:36.949Z,5.30
2023-05-07T00:56:03.790Z,5.40
2023-05-07T00:58:31.491Z,5.00
2023-05-07T01:00:58.784Z,4.50
2023-05-07T01:03:25.727Z,5.10
2023-05-07T01:05:52.982Z,4.70
2023-05-07T01:08:20.184Z,5.20
2023-05-07T01:10:47.085Z,5.50
2023-05-07T01:13:14.018Z,5.00
2023-05-07T01:15:42.250Z,5.30
2023-05-07T01:18:09.420Z,4.70
2023-05-07T01:20:38.635Z,4.40
2023-05-07T01:23:06.520Z,5.90
2023-05-07T01:25:33.618Z,5.40
2023-05-07T01:28:02.297Z,4.70
2023-05-07T01:30:31.512Z,4.80
2023-05-07T01:33:03.864Z,5.20
2023-05-07T01:35:32.043Z,5.20
2023-05-07T01:37:58.877Z,5.20
2023-05-07T01:40:25.838Z,5.10
2023-05-07T01:42:52.689Z,5.30
2023-05-07T01:45:19.492Z,5.40
2023-05-07T01:47:47.250Z,4.90
2023-05-07T01:50:14.996Z,5.30
2023-05-07T01:52:41.817Z,4.60
2023-05-07T01:55:08.782Z,5.00
2023-05-07T01:57:35.550Z,5.30
2023-05-07T02:00:07.214Z,5.30
2023-05-07T02:02:42.294Z,5.20
2023-05-07T02:05:11.259Z,4.40
2023-05-07T02:07:38.781Z,4.60
2023-05-07T02:10:06.186Z,5.30
2023-05-07T02:12:32.976Z,4.90
2023-05-07T02:14:59.724Z,4.80
2023-05-07T02:17:27.032Z,5.10
2023-05-07T02:19:53.830Z,5.30
2023-05-07T02:22:20.637Z,4.80
2023-05-07T02:24:47.502Z,4.70
2023-05-07T02:27:14.276Z,4.10
2023-05-07T02:29:41.516Z,4.60
2023-05-07T02:32:08.522Z,4.40
2023-05-07T02:34:35.353Z,4.70
2023-05-07T02:37:02.530Z,4.60
2023-05-07T02:39:29.389Z,4.60
2023-05-07T02:41:56.894Z,4.60
2023-05-07T02:44:23.780Z,4.90
2023-05-07T02:46:51.341Z,4.80
2023-05-07T02:49:18.106Z,4.70
2023-05-07T02:51:45.120Z,4.60
2023-05-07T02:54:16.229Z,4.50
2023-05-07T02:56:42.984Z,5.10
2023-05-07T02:59:09.786Z,4.70
2023-05-07T03:01:38.733Z,4.50
2023-05-07T03:04:07.663Z,4.60
2023-05-07T03:06:34.458Z,4.70
2023-05-07T03:09:01.280Z,5.00
2023-05-07T03:11:28.160Z,4.70
2023-05-07T03:13:55.066Z,4.70
2023-05-07T03:16:22.088Z,4.60
2023-05-07T03:18:48.951Z,4.70
2023-05-07T03:21:15.800Z,5.40
2023-05-07T03:23:42.718Z,5.30
2023-05-07T03:26:09.478Z,4.90
2023-05-07T03:28:36.631Z,4.40
2023-05-07T03:31:04.863Z,5.70
2023-05-07T03:33:34.100Z,5.50
2023-05-07T03:36:01.081Z,4.10
2023-05-07T03:38:28.148Z,5.00
2023-05-07T03:40:54.977Z,6.40
2023-05-07T03:43:21.992Z,5.10
2023-05-07T03:45:52.305Z,5.60
2023-05-07T03:48:22.487Z,5.80
2023-05-07T03:50:49.838Z,5.20
2023-05-07T03:53:17.206Z,5.20
2023-05-07T03:55:43.911Z,5.30
2023-05-07T03:58:10.863Z,4.70
2023-05-07T04:00:40.157Z,5.70
2023-05-07T04:03:16.902Z,5.00
2023-05-07T04:05:43.871Z,5.10
2023-05-07T04:08:10.744Z,5.10
2023-05-07T04:10:42.100Z,4.80
2023-05-07T04:13:10.439Z,5.70
2023-05-07T04:15:37.429Z,5.40
2023-05-07T04:18:06.425Z,4.70
2023-05-07T04:20:34.920Z,4.60
2023-05-07T04:23:02.537Z,5.90
2023-05-07T04:25:29.666Z,4.90
2023-05-07T04:28:01.898Z,5.80
2023-05-07T04:30:29.086Z,4.90
2023-05-07T04:32:55.944Z,4.90
2023-05-07T04:35:23.553Z,4.30
2023-05-07T04:37:50.841Z,4.80
2023-05-07T04:40:17.704Z,4.50
2023-05-07T04:42:44.999Z,4.60
2023-05-07T04:45:13.424Z,5.10
2023-05-07T04:47:41.456Z,5.10
2023-05-07T04:50:09.514Z,4.50
2023-05-07T04:52:36.781Z,4.90
2023-05-07T04:55:03.965Z,4.70
2023-05-07T04:57:34.558Z,4.80
2023-05-07T05:00:01.702Z,4.90
2023-05-07T05:02:31.593Z,5.60
2023-05-07T05:04:58.434Z,4.50
2023-05-07T05:07:25.274Z,4.30
2023-05-07T05:09:52.209Z,4.50
2023-05-07T05:12:19.644Z,4.60
2023-05-07T05:14:46.431Z,4.70
2023-05-07T05:17:13.939Z,5.00
2023-05-07T05:19:40.979Z,4.90
2023-05-07T05:22:07.874Z,5.30
2023-05-07T05:24:34.739Z,4.70
2023-05-07T05:27:03.392Z,5.20
2023-05-07T05:29:32.601Z,4.60
2023-05-07T05:31:59.820Z,4.30
2023-05-07T05:34:27.107Z,4.50
2023-05-07T05:36:53.924Z,4.90
2023-05-07T05:39:20.841Z,4.40
2023-05-07T05:41:47.756Z,4.50
2023-05-07T05:44:14.664Z,5.10
2023-05-07T05:46:41.820Z,4.70
2023-05-07T05:49:08.889Z,4.60
2023-05-07T05:51:35.765Z,4.40
2023-05-07T05:54:02.524Z,4.60
2023-05-07T05:56:29.786Z,4.40
2023-05-07T05:58:56.855Z,5.10
2023-05-07T06:01:23.913Z,4.60
2023-05-07T06:03:51.112Z,5.10
2023-05-07T06:06:17.992Z,4.40
2023-05-07T06:08:44.925Z,4.30
2023-05-07T06:11:13.877Z,4.80
2023-05-07T06:13:41.174Z,5.10
2023-05-07T06:16:08.176Z,4.50
2023-05-07T06:18:37.129Z,4.30
2023-05-07T06:21:04.514Z,5.20
2023-05-07T06:23:32.239Z,4.00
2023-05-07T06:25:59.764Z,4.70
2023-05-07T06:28:31.933Z,4.30
2023-05-07T06:31:11.757Z,5.00
2023-05-07T06:33:39.117Z,4.70
2023-05-07T06:36:06.353Z,4.00
2023-05-07T06:38:33.304Z,4.00
2023-05-07T06:41:00.156Z,5.00
2023-05-07T06:43:26.944Z,4.30
2023-05-07T06:46:22.654Z,4.40
2023-05-07T06:48:49.692Z,3.80
2023-05-07T06:51:16.511Z,3.80
2023-05-07T06:53:43.540Z,4.00
2023-05-07T06:56:11.026Z,3.30
2023-05-07T06:58:41.209Z,3.80
2023-05-07T07:01:08.873Z,3.80
2023-05-07T07:03:36.436Z,3.80
2023-05-07T07:06:03.599Z,3.50
2023-05-07T07:08:30.444Z,3.70
2023-05-07T07:10:57.428Z,3.70
2023-05-07T07:13:24.346Z,3.30
2023-05-07T07:15:51.327Z,3.20
2023-05-07T07:18:18.291Z,3.40
2023-05-07T07:20:45.943Z,3.00
2023-05-07T07:23:13.972Z,2.90
2023-05-07T07:25:41.741Z,3.30
2023-05-07T07:28:08.986Z,3.70
2023-05-07T07:30:37.653Z,2.90
2023-05-07T07:33:04.678Z,3.30
2023-05-07T07:35:33.669Z,2.80
2023-05-07T07:38:01.104Z,2.60
2023-05-07T07:40:28.090Z,3.00
2023-05-07T07:42:55.042Z,3.00
2023-05-07T07:45:22.408Z,2.50
2023-05-07T07:47:51.884Z,3.10
2023-05-07T07:50:31.775Z,2.80
2023-05-07T07:53:07.040Z,2.80
2023-05-07T07:55:33.894Z,2.90
2023-05-07T07:58:00.964Z,2.80
2023-05-07T08:00:27.822Z,3.10
2023-05-07T08:02:55.374Z,3.10
2023-05-07T08:05:26.138Z,3.00
2023-05-07T08:07:54.306Z,2.70
2023-05-07T08:10:25.173Z,2.80
2023-05-07T08:12:56.583Z,2.70
2023-05-07T08:15:23.435Z,3.20
2023-05-07T08:17:50.643Z,2.80
2023-05-07T08:20:17.572Z,3.20
2023-05-07T08:22:44.568Z,2.70
2023-05-07T08:25:11.441Z,3.30
2023-05-07T08:27:38.579Z,2.70
2023-05-07T08:30:05.889Z,2.60
2023-05-07T08:32:32.866Z,2.80
2023-05-07T08:34:59.689Z,3.00
2023-05-07T08:37:26.825Z,3.20
2023-05-07T08:39:53.734Z,2.70
2023-05-07T08:42:22.940Z,3.00
2023-05-07T08:44:49.793Z,2.90
2023-05-07T08:47:17.064Z,2.70
2023-05-07T08:49:44.275Z,2.50
2023-05-07T08:52:12.465Z,2.60
2023-05-07T08:54:39.731Z,2.90
2023-05-07T08:57:07.183Z,3.10
2023-05-07T08:59:34.730Z,2.50
2023-05-07T09:02:02.693Z,2.60
2023-05-07T09:04:29.707Z,3.40
2023-05-07T09:06:57.334Z,2.90
2023-05-07T09:09:24.246Z,3.60
2023-05-07T09:11:57.637Z,2.60
2023-05-07T09:14:25.859Z,2.80
2023-05-07T09:16:55.808Z,2.50
2023-05-07T09:19:23.771Z,3.10
2023-05-07T09:21:50.653Z,2.60
2023-05-07T09:24:17.938Z,2.40
2023-05-07T09:26:45.000Z,2.80
2023-05-07T09:29:12.053Z,2.90
2023-05-07T09:31:39.205Z,2.70
2023-05-07T09:34:06.668Z,2.60
2023-05-07T09:36:34.224Z,2.50
2023-05-07T09:39:01.493Z,2.90
2023-05-07T09:41:29.214Z,2.70
2023-05-07T09:44:02.760Z,2.70
2023-05-07T09:46:35.541Z,2.40
2023-05-07T09:49:05.200Z,3.30
2023-05-07T09:51:39.015Z,3.00
2023-05-07T09:54:05.874Z,3.30
2023-05-07T09:56:34.632Z,4.40
2023-05-07T09:59:01.710Z,6.20
2023-05-07T10:01:31.850Z,6.60
2023-05-07T10:03:59.135Z,5.80
2023-05-07T10:06:26.590Z,2.70
2023-05-07T10:08:53.456Z,2.60
2023-05-07T10:11:21.743Z,2.70
2023-05-07T10:13:48.873Z,3.00
2023-05-07T10:16:16.084Z,3.40
2023-05-07T10:18:46.580Z,3.30
2023-05-07T10:21:18.185Z,3.90
2023-05-07T10:23:58.370Z,2.90
2023-05-07T10:26:26.053Z,2.70
2023-05-07T10:28:54.616Z,3.40
2023-05-07T10:31:24.587Z,2.80
2023-05-07T10:33:52.269Z,2.80
2023-05-07T10:36:19.502Z,2.90
2023-05-07T10:38:47.297Z,2.70
2023-05-07T10:41:14.315Z,2.90
2023-05-07T10:43:43.496Z,2.70
2023-05-07T10:46:20.800Z,3.00
2023-05-07T10:49:02.052Z,2.90
2023-05-07T10:51:33.644Z,2.80
2023-05-07T10:54:24.940Z,2.90
2023-05-07T10:57:25.205Z,2.80
2023-05-07T10:59:53.166Z,2.90
2023-05-07T11:02:24.303Z,3.20
2023-05-07T11:05:14.313Z,3.20
2023-05-07T11:07:41.427Z,2.40
2023-05-07T11:10:12.478Z,2.70
2023-05-07T11:12:50.978Z,2.60
2023-05-07T11:15:34.442Z,3.40
2023-05-07T11:18:04.872Z,2.90
2023-05-07T11:20:49.003Z,2.70
2023-05-07T11:23:39.400Z,2.70
2023-05-07T11:26:15.404Z,2.80
2023-05-07T11:28:42.770Z,2.90
2023-05-07T11:31:10.637Z,2.70
2023-05-07T11:33:38.704Z,2.70
2023-05-07T11:36:07.101Z,2.40
2023-05-07T11:38:37.159Z,2.80
2023-05-07T11:41:05.834Z,2.50
2023-05-07T11:43:33.526Z,3.10
2023-05-07T11:46:12.919Z,2.80
2023-05-07T11:48:39.844Z,2.40
2023-05-07T11:51:07.013Z,2.70
2023-05-07T11:53:37.859Z,2.50
2023-05-07T11:56:11.355Z,2.80
2023-05-07T11:58:38.230Z,2.40
2023-05-07T12:01:05.133Z,2.90
2023-05-07T12:03:35.686Z,2.90
2023-05-07T12:06:03.005Z,2.40
2023-05-07T12:08:29.793Z,2.60
2023-05-07T12:10:56.559Z,2.70
2023-05-07T12:13:23.869Z,2.50
2023-05-07T12:15:54.301Z,2.70
2023-05-07T12:18:21.234Z,3.20
2023-05-07T12:20:47.988Z,2.70
2023-05-07T12:23:14.769Z,2.70
2023-05-07T12:25:47.557Z,2.50
2023-05-07T12:28:15.426Z,3.00
2023-05-07T12:30:43.126Z,2.50
2023-05-07T12:33:10.083Z,2.90
2023-05-07T12:35:37.715Z,2.90
2023-05-07T12:38:05.593Z,2.70
2023-05-07T12:40:39.259Z,3.00
2023-05-07T12:43:06.054Z,2.60
2023-05-07T12:45:32.892Z,2.80
2023-05-07T12:48:02.266Z,3.20
2023-05-07T12:50:31.806Z,4.40
2023-05-07T12:52:58.655Z,3.40
2023-05-07T12:55:25.376Z,3.20
2023-05-07T12:57:52.493Z,3.10
2023-05-07T13:00:19.557Z,3.90
2023-05-07T13:02:46.516Z,3.40
2023-05-07T13:05:13.968Z,3.50
2023-05-07T13:07:41.915Z,4.10
2023-05-07T13:10:09.060Z,3.90
2023-05-07T13:12:36.124Z,3.10
2023-05-07T13:15:02.992Z,3.40
2023-05-07T13:17:31.962Z,3.20
2023-05-07T13:19:58.881Z,2.70
2023-05-07T13:22:25.770Z,3.40
2023-05-07T13:24:52.465Z,3.10
2023-05-07T13:27:20.570Z,3.10
2023-05-07T13:29:47.374Z,3.10
2023-05-07T13:32:14.197Z,3.10
2023-05-07T13:34:41.078Z,2.90
2023-05-07T13:37:11.432Z,4.20
2023-05-07T13:39:38.525Z,3.70
2023-05-07T13:42:05.527Z,3.60
2023-05-07T13:44:32.409Z,3.30
2023-05-07T13:46:59.184Z,3.10
2023-05-07T13:49:26.247Z,2.90
2023-05-07T13:51:53.063Z,2.70
2023-05-07T13:54:19.876Z,3.40
2023-05-07T13:56:46.656Z,2.90
2023-05-07T13:59:15.466Z,3.40
2023-05-07T14:01:42.393Z,2.80
2023-05-07T14:04:09.242Z,2.50
2023-05-07T14:06:35.970Z,2.90
2023-05-07T14:09:02.809Z,3.00
2023-05-07T14:11:29.857Z,3.50
2023-05-07T14:13:58.017Z,3.10
2023-05-07T14:16:24.853Z,3.00
2023-05-07T14:18:51.613Z,3.20
2023-05-07T14:21:18.486Z,3.20
2023-05-07T14:23:45.341Z,3.50
2023-05-07T14:26:12.203Z,3.60
2023-05-07T14:28:40.719Z,3.00
2023-05-07T14:31:07.809Z,3.60
2023-05-07T14:33:34.726Z,3.60
2023-05-07T14:36:01.642Z,4.30
2023-05-07T14:38:28.387Z,3.20
2023-05-07T14:40:56.957Z,3.70
2023-05-07T14:43:23.732Z,3.80
2023-05-07T14:45:51.638Z,3.30
2023-05-07T14:48:21.133Z,3.10
2023-05-07T14:50:48.598Z,3.40
2023-05-07T14:53:16.421Z,3.60
2023-05-07T14:55:43.210Z,4.00
2023-05-07T14:58:10.328Z,3.90
2023-05-07T15:00:37.062Z,4.20
2023-05-07T15:03:10.653Z,3.40
2023-05-07T15:05:37.930Z,4.30
2023-05-07T15:08:04.862Z,4.30
2023-05-07T15:10:31.761Z,3.80
2023-05-07T15:12:58.612Z,3.40
2023-05-07T15:15:25.443Z,3.20
2023-05-07T15:17:52.792Z,3.00
2023-05-07T15:20:20.399Z,3.50
2023-05-07T15:22:47.357Z,3.80
2023-05-07T15:25:14.488Z,4.50
2023-05-07T15:27:41.514Z,4.60
2023-05-07T15:30:08.604Z,4.00
2023-05-07T15:32:35.629Z,4.50
2023-05-07T15:35:02.714Z,3.50
2023-05-07T15:37:29.559Z,3.90
2023-05-07T15:39:56.488Z,4.90
2023-05-07T15:42:23.695Z,5.90
2023-05-07T15:44:50.536Z,5.80
2023-05-07T15:47:17.298Z,6.80
2023-05-07T15:49:44.065Z,6.30
2023-05-07T15:52:15.963Z,5.70
2023-05-07T15:54:42.946Z,6.10
2023-05-07T15:57:11.504Z,6.30
2023-05-07T15:59:38.341Z,9.20
2023-05-07T16:02:05.542Z,10.20
2023-05-07T16:04:32.298Z,9.40
2023-05-07T16:06:59.044Z,9.30
2023-05-07T16:09:27.220Z,6.10
2023-05-07T16:11:53.998Z,4.60
2023-05-07T16:14:20.746Z,4.10
2023-05-07T16:16:48.372Z,4.80
2023-05-07T16:19:15.766Z,4.00
2023-05-07T16:21:42.625Z,4.10
2023-05-07T16:24:09.679Z,3.90
2023-05-07T16:26:36.969Z,3.70
2023-05-07T16:29:09.720Z,3.40
2023-05-07T16:31:36.912Z,4.40
2023-05-07T16:34:04.181Z,4.40
2023-05-07T16:36:31.224Z,4.50
2023-05-07T16:38:57.996Z,4.10
2023-05-07T16:41:24.829Z,4.80
2023-05-07T16:43:51.631Z,4.80
2023-05-07T16:46:18.399Z,4.40
2023-05-07T16:48:45.286Z,4.60
2023-05-07T16:51:12.052Z,4.10
2023-05-07T16:53:39.314Z,4.70
2023-05-07T16:56:06.573Z,4.40
2023-05-07T16:58:33.547Z,5.00
2023-05-07T17:01:04.079Z,4.60
2023-05-07T17:03:32.391Z,4.30
2023-05-07T17:06:36.187Z,4.00
2023-05-07T17:09:13.079Z,4.60
2023-05-07T17:14:26.278Z,3.90
2023-05-07T17:16:53.119Z,3.50
2023-05-07T17:19:19.882Z,4.00
2023-05-07T17:21:46.613Z,3.70
2023-05-07T17:24:13.470Z,4.10
2023-05-07T17:27:00.208Z,4.70
2023-05-07T17:29:27.096Z,7.50
2023-05-07T17:31:53.947Z,8.30
2023-05-07T17:34:20.797Z,10.10
2023-05-07T17:36:48.122Z,12.90
2023-05-07T17:39:14.979Z,11.60
2023-05-07T17:41:42.212Z,8.20
2023-05-07T17:44:09.286Z,8.30
2023-05-07T17:46:36.101Z,6.70
2023-05-07T17:49:03.152Z,6.20
2023-05-07T17:51:36.104Z,7.40
2023-05-07T17:54:09.268Z,5.50
2023-05-07T17:56:37.237Z,5.90
2023-05-07T17:59:04.015Z,6.40
2023-05-07T18:01:33.499Z,7.30
2023-05-07T18:04:01.114Z,7.80
2023-05-07T18:06:28.757Z,5.50
2023-05-07T18:08:55.926Z,5.20
2023-05-07T18:11:23.351Z,4.20
2023-05-07T18:13:50.249Z,6.20
2023-05-07T18:16:18.676Z,5.70
2023-05-07T18:18:46.969Z,4.50
2023-05-07T18:21:19.002Z,4.60
2023-05-07T18:23:46.357Z,4.50
2023-05-07T18:26:13.206Z,3.80
2023-05-07T18:28:40.984Z,4.80
2023-05-07T18:31:07.796Z,5.00
2023-05-07T18:33:34.663Z,4.40
2023-05-07T18:36:01.487Z,4.90
2023-05-07T18:38:28.314Z,4.70
2023-05-07T18:41:01.167Z,4.40
2023-05-07T18:43:27.965Z,3.90
2023-05-07T18:45:54.778Z,4.10
2023-05-07T18:48:21.622Z,3.50
2023-05-07T18:50:49.998Z,3.90
2023-05-07T18:53:16.791Z,3.60
2023-05-07T18:55:48.309Z,3.40
2023-05-07T18:58:16.647Z,3.80
2023-05-07T19:00:43.607Z,3.40
2023-05-07T19:03:10.601Z,3.70
2023-05-07T19:05:38.228Z,3.40
2023-05-07T19:08:05.085Z,3.60
2023-05-07T19:10:31.831Z,3.70
2023-05-07T19:12:58.588Z,3.70
2023-05-07T19:15:25.696Z,4.00
2023-05-07T19:17:52.608Z,4.20
2023-05-07T19:20:19.478Z,4.10
2023-05-07T19:22:46.387Z,4.20
2023-05-07T19:25:13.594Z,3.90
2023-05-07T19:27:40.515Z,3.80
2023-05-07T19:30:08.313Z,3.70
2023-05-07T19:32:35.378Z,3.60
2023-05-07T19:35:02.338Z,3.60
2023-05-07T19:37:30.173Z,3.80
2023-05-07T19:39:56.961Z,3.50
2023-05-07T19:42:23.852Z,4.00
2023-05-07T19:44:50.702Z,3.80
2023-05-07T19:47:17.799Z,3.50
2023-05-07T19:49:44.562Z,4.10
2023-05-07T19:52:11.427Z,3.80
2023-05-07T19:54:38.578Z,3.50
2023-05-07T19:57:05.406Z,3.80
2023-05-07T19:59:32.212Z,4.10
2023-05-07T20:01:59.984Z,4.20
2023-05-07T20:04:30.442Z,4.80
2023-05-07T20:06:57.574Z,4.50
2023-05-07T20:09:24.409Z,4.20
2023-05-07T20:11:51.241Z,4.70
2023-05-07T20:14:18.012Z,4.40
2023-05-07T20:16:45.892Z,3.90
2023-05-07T20:19:12.938Z,4.00
2023-05-07T20:21:40.571Z,4.20
2023-05-07T20:24:07.653Z,4.80
2023-05-07T20:26:34.512Z,4.30
2023-05-07T20:29:01.500Z,4.40
2023-05-07T20:31:28.430Z,4.20
2023-05-07T20:33:55.209Z,4.00
2023-05-07T20:36:25.050Z,4.30
2023-05-07T20:38:52.654Z,3.70
2023-05-07T20:41:21.086Z,4.00
2023-05-07T20:43:48.732Z,4.20
2023-05-07T20:46:15.628Z,3.80
2023-05-07T20:48:42.627Z,4.60
2023-05-07T20:51:13.669Z,4.40
2023-05-07T20:53:40.891Z,4.20
2023-05-07T20:56:07.692Z,4.40
2023-05-07T20:58:34.406Z,4.10
2023-05-07T21:01:01.294Z,5.00
2023-05-07T21:03:28.558Z,4.10
2023-05-07T21:05:56.477Z,3.80
2023-05-07T21:08:23.333Z,4.40
2023-05-07T21:10:51.077Z,3.80
2023-05-07T21:13:18.892Z,3.90
2023-05-07T21:15:46.202Z,4.10
2023-05-07T21:18:12.989Z,3.90
2023-05-07T21:20:40.123Z,4.20
2023-05-07T21:23:07.532Z,3.60
2023-05-07T21:25:36.820Z,3.50
2023-05-07T21:28:08.926Z,4.20
2023-05-07T21:30:36.930Z,3.90
2023-05-07T21:33:04.933Z,3.70
2023-05-07T21:35:33.880Z,3.80
2023-05-07T21:38:02.652Z,4.10
2023-05-07T21:40:29.446Z,4.10
2023-05-07T21:42:56.216Z,4.00
2023-05-07T21:45:23.871Z,4.30
2023-05-07T21:47:50.758Z,3.70
2023-05-07T21:50:17.625Z,3.80
2023-05-07T21:52:44.442Z,3.70
2023-05-07T21:55:11.402Z,4.00
2023-05-07T21:57:41.884Z,4.10
2023-05-07T22:00:10.952Z,3.90
2023-05-07T22:02:38.445Z,3.50
2023-05-07T22:05:05.481Z,3.90
2023-05-07T22:07:32.288Z,3.80
2023-05-07T22:09:59.157Z,4.00
2023-05-07T22:12:25.976Z,4.00
2023-05-07T22:14:55.841Z,4.10
2023-05-07T22:17:24.553Z,4.00
2023-05-07T22:19:51.522Z,4.30
2023-05-07T22:22:19.242Z,4.20
2023-05-07T22:24:46.437Z,4.10
2023-05-07T22:27:13.244Z,4.10
2023-05-07T22:29:39.964Z,4.30
2023-05-07T22:32:06.809Z,3.80
2023-05-07T22:34:33.647Z,3.90
2023-05-07T22:37:00.569Z,4.00
2023-05-07T22:39:27.432Z,3.70
2023-05-07T22:41:54.251Z,3.70
2023-05-07T22:44:21.046Z,3.90
2023-05-07T22:46:49.849Z,4.10
2023-05-07T22:49:16.697Z,4.00
2023-05-07T22:51:43.496Z,4.10
2023-05-07T22:54:11.305Z,4.00
2023-05-07T22:56:38.086Z,3.90
2023-05-07T22:59:04.862Z,4.10
2023-05-07T23:01:31.722Z,4.40
2023-05-07T23:03:58.520Z,5.50
2023-05-07T23:06:25.305Z,4.20
2023-05-07T23:08:52.094Z,3.90
2023-05-07T23:11:18.909Z,3.90
2023-05-07T23:13:45.728Z,4.10
2023-05-07T23:16:12.499Z,4.10
2023-05-07T23:18:39.330Z,4.20
2023-05-07T23:21:06.904Z,3.70
2023-05-07T23:23:34.376Z,4.20
2023-05-07T23:26:01.272Z,4.30
2023-05-07T23:28:28.106Z,4.30
2023-05-07T23:30:54.907Z,4.20
2023-05-07T23:33:21.695Z,4.40
2023-05-07T23:35:48.448Z,4.30
2023-05-07T23:38:15.206Z,4.30
2023-05-07T23:40:42.046Z,4.00
2023-05-07T23:43:09.005Z,4.40
2023-05-07T23:45:35.839Z,4.50
2023-05-07T23:48:02.686Z,4.20
2023-05-07T23:50:29.513Z,4.10
2023-05-07T23:52:56.352Z,4.50
2023-05-07T23:55:23.678Z,3.90
2023-05-07T23:57:50.460Z,4.00
